createdAt,value
2019-04-29T00:00:58.007Z,4.85
2019-04-29T00:03:27.145Z,4.15
2019-04-29T00:05:56.261Z,5.22
2019-04-29T00:08:25.487Z,4.90
2019-04-29T00:10:54.610Z,4.70
2019-04-29T00:13:23.798Z,4.90
2019-04-29T00:16:11.991Z,5.87
2019-04-29T00:19:07.434Z,5.28
2019-04-29T00:24:04.894Z,5.03
2019-04-29T00:26:34.016Z,5.83
2019-04-29T00:29:03.135Z,5.00
2019-04-29T00:31:32.264Z,4.95
2019-04-29T00:34:01.388Z,5.22
2019-04-29T00:36:35.344Z,5.10
2019-04-29T00:39:23.733Z,5.37
2019-04-29T00:42:16.095Z,4.85
2019-04-29T00:44:45.263Z,4.60
2019-04-29T00:47:14.903Z,4.30
2019-04-29T00:49:44.059Z,4.00
2019-04-29T00:52:13.169Z,5.05
2019-04-29T00:54:48.107Z,5.62
2019-04-29T00:57:17.274Z,5.75
2019-04-29T00:59:46.416Z,6.03
2019-04-29T01:02:15.555Z,6.15
2019-04-29T01:04:44.674Z,5.75
2019-04-29T01:07:13.824Z,4.40
2019-04-29T01:09:42.961Z,4.95
2019-04-29T01:12:12.142Z,5.53
2019-04-29T01:14:41.281Z,6.42
2019-04-29T01:17:10.403Z,5.20
2019-04-29T01:19:39.532Z,4.97
2019-04-29T01:22:08.669Z,5.70
2019-04-29T01:24:37.824Z,5.97
2019-04-29T01:29:46.573Z,5.55
2019-04-29T01:32:15.700Z,6.25
2019-04-29T01:34:50.696Z,5.53
2019-04-29T01:37:19.823Z,4.92
2019-04-29T01:39:55.187Z,4.70
2019-04-29T01:42:27.470Z,5.87
2019-04-29T01:44:56.611Z,7.83
2019-04-29T01:47:25.723Z,6.20
2019-04-29T01:49:54.844Z,5.60
2019-04-29T01:52:24.049Z,7.97
2019-04-29T01:54:53.221Z,8.05
2019-04-29T01:57:22.339Z,7.50
2019-04-29T01:59:51.486Z,5.80
2019-04-29T02:02:20.595Z,7.37
2019-04-29T02:04:49.747Z,5.62
2019-04-29T02:07:18.848Z,5.17
2019-04-29T02:09:55.793Z,6.10
2019-04-29T02:12:24.928Z,8.70
2019-04-29T02:14:54.043Z,6.65
2019-04-29T02:17:23.174Z,8.10
2019-04-29T02:19:52.395Z,6.35
2019-04-29T02:22:30.962Z,7.33
2019-04-29T02:25:11.394Z,7.15
2019-04-29T02:27:40.518Z,7.80
2019-04-29T02:30:10.694Z,6.90
2019-04-29T02:32:39.818Z,8.78
2019-04-29T02:35:08.935Z,8.48
2019-04-29T02:37:40.495Z,7.42
2019-04-29T02:40:23.222Z,7.58
2019-04-29T02:42:58.809Z,8.45
2019-04-29T02:45:31.470Z,7.30
2019-04-29T02:48:00.582Z,6.42
2019-04-29T02:50:29.708Z,6.25
2019-04-29T02:52:58.856Z,8.63
2019-04-29T02:55:32.533Z,8.90
2019-04-29T02:58:12.550Z,8.63
2019-04-29T03:01:00.162Z,8.38
2019-04-29T03:03:51.441Z,9.38
2019-04-29T03:06:20.559Z,8.35
2019-04-29T03:08:49.675Z,7.40
2019-04-29T03:11:21.399Z,8.68
2019-04-29T03:13:50.526Z,8.08
2019-04-29T03:16:20.608Z,9.13
2019-04-29T03:18:54.210Z,8.98
2019-04-29T03:21:40.663Z,8.08
2019-04-29T03:24:09.802Z,7.55
2019-04-29T03:26:38.941Z,9.33
2019-04-29T03:29:22.155Z,8.10
2019-04-29T03:31:56.738Z,8.63
2019-04-29T03:36:54.293Z,8.50
2019-04-29T03:39:23.449Z,7.22
2019-04-29T03:41:52.586Z,8.88
2019-04-29T03:44:21.734Z,7.65
2019-04-29T03:46:50.879Z,7.53
2019-04-29T03:49:20.152Z,8.98
2019-04-29T03:51:49.298Z,9.10
2019-04-29T03:54:18.419Z,8.73
2019-04-29T03:56:47.606Z,7.67
2019-04-29T03:59:16.730Z,8.15
2019-04-29T04:01:56.220Z,9.05
2019-04-29T04:04:43.003Z,8.00
2019-04-29T04:07:46.145Z,9.23
2019-04-29T04:10:16.019Z,5.17
2019-04-29T04:12:45.303Z,6.55
2019-04-29T04:15:14.420Z,7.05
2019-04-29T04:17:53.185Z,9.03
2019-04-29T04:20:22.681Z,9.33
2019-04-29T04:22:51.812Z,8.58
2019-04-29T04:25:20.927Z,8.95
2019-04-29T04:27:50.052Z,9.70
2019-04-29T04:30:19.852Z,8.58
2019-04-29T04:32:49.008Z,7.87
2019-04-29T04:35:18.117Z,9.03
2019-04-29T04:37:47.270Z,10.30
2019-04-29T04:40:20.763Z,7.87
2019-04-29T04:42:49.904Z,10.53
2019-04-29T04:45:19.092Z,9.75
2019-04-29T04:47:48.229Z,9.80
2019-04-29T04:50:17.357Z,8.05
2019-04-29T04:52:46.471Z,9.00
2019-04-29T04:55:15.613Z,7.85
2019-04-29T04:57:44.749Z,6.78
2019-04-29T05:00:20.450Z,8.35
2019-04-29T05:02:49.515Z,9.40
2019-04-29T05:05:18.631Z,6.97
2019-04-29T05:07:47.753Z,5.60
2019-04-29T05:10:16.874Z,8.13
2019-04-29T05:12:46.329Z,7.95
2019-04-29T05:15:15.425Z,8.48
2019-04-29T05:17:44.671Z,6.80
2019-04-29T05:20:13.783Z,6.75
2019-04-29T05:22:59.164Z,7.40
2019-04-29T05:25:53.051Z,7.10
2019-04-29T05:28:22.197Z,6.15
2019-04-29T05:30:51.311Z,6.65
2019-04-29T05:33:20.459Z,7.50
2019-04-29T05:35:56.699Z,7.15
2019-04-29T05:38:48.113Z,8.28
2019-04-29T05:41:17.424Z,5.78
2019-04-29T05:44:11.775Z,7.40
2019-04-29T05:46:59.475Z,5.55
2019-04-29T05:49:37.378Z,7.85
2019-04-29T05:52:34.558Z,7.75
2019-04-29T05:55:01.662Z,8.25
2019-04-29T05:57:31.201Z,6.53
2019-04-29T06:00:00.347Z,6.80
2019-04-29T06:02:33.623Z,6.85
2019-04-29T06:05:00.361Z,7.90
2019-04-29T06:07:29.477Z,8.30
2019-04-29T06:09:58.628Z,8.70
2019-04-29T06:12:27.753Z,8.83
2019-04-29T06:14:56.894Z,9.05
2019-04-29T06:17:26.075Z,9.65
2019-04-29T06:19:55.333Z,9.00
2019-04-29T06:22:24.486Z,10.08
2019-04-29T06:24:53.639Z,12.18
2019-04-29T06:27:22.767Z,11.05
2019-04-29T06:29:51.917Z,9.98
2019-04-29T06:32:25.076Z,9.75
2019-04-29T06:34:51.903Z,10.50
2019-04-29T06:37:21.079Z,10.75
2019-04-29T06:39:50.205Z,8.78
2019-04-29T06:42:20.408Z,10.18
2019-04-29T06:44:50.770Z,10.60
2019-04-29T06:47:20.051Z,9.68
2019-04-29T06:49:49.209Z,9.98
2019-04-29T06:52:18.347Z,8.68
2019-04-29T06:54:47.601Z,9.50
2019-04-29T06:57:16.746Z,10.82
2019-04-29T06:59:47.478Z,10.65
2019-04-29T07:02:16.909Z,9.73
2019-04-29T07:04:46.075Z,11.97
2019-04-29T07:07:15.184Z,13.58
2019-04-29T07:09:44.394Z,13.62
2019-04-29T07:12:14.028Z,14.23
2019-04-29T07:14:43.298Z,12.50
2019-04-29T07:17:12.434Z,15.32
2019-04-29T07:19:41.564Z,13.80
2019-04-29T07:22:10.749Z,13.90
2019-04-29T07:24:39.890Z,14.38
2019-04-29T07:27:09.029Z,15.50
2019-04-29T07:29:38.343Z,15.88
2019-04-29T07:32:09.335Z,18.55
2019-04-29T07:34:39.576Z,16.52
2019-04-29T07:37:08.987Z,16.62
2019-04-29T07:39:38.118Z,16.25
2019-04-29T07:42:07.256Z,18.77
2019-04-29T07:47:20.288Z,15.40
2019-04-29T07:49:51.515Z,16.67
2019-04-29T07:52:20.318Z,13.38
2019-04-29T07:54:55.213Z,14.98
2019-04-29T07:57:20.326Z,13.53
2019-04-29T07:59:49.456Z,14.45
2019-04-29T08:02:18.622Z,11.57
2019-04-29T08:04:47.776Z,11.50
2019-04-29T08:07:18.128Z,10.72
2019-04-29T08:09:47.774Z,10.88
2019-04-29T08:12:17.109Z,9.73
2019-04-29T08:14:46.686Z,11.22
2019-04-29T08:17:15.819Z,9.58
2019-04-29T08:19:44.992Z,8.48
2019-04-29T08:22:17.778Z,9.50
2019-04-29T08:24:45.880Z,8.45
2019-04-29T08:27:15.824Z,8.53
2019-04-29T08:29:44.967Z,9.50
2019-04-29T08:32:14.130Z,8.63
2019-04-29T08:34:43.281Z,8.30
2019-04-29T08:37:12.576Z,7.40
2019-04-29T08:39:41.715Z,7.42
2019-04-29T08:42:13.478Z,8.45
2019-04-29T08:45:04.620Z,8.48
2019-04-29T08:47:35.901Z,8.23
2019-04-29T08:50:05.523Z,8.33
2019-04-29T08:52:34.678Z,8.38
2019-04-29T08:55:04.089Z,9.00
2019-04-29T08:57:36.577Z,8.40
2019-04-29T09:00:05.575Z,8.15
2019-04-29T09:02:35.711Z,8.83
2019-04-29T09:05:06.803Z,8.23
2019-04-29T09:07:36.700Z,7.72
2019-04-29T09:10:06.530Z,7.03
2019-04-29T09:12:35.667Z,7.53
2019-04-29T09:15:05.335Z,7.62
2019-04-29T09:17:34.474Z,7.20
2019-04-29T09:20:03.855Z,7.90
2019-04-29T09:22:34.631Z,7.05
2019-04-29T09:25:21.353Z,6.47
2019-04-29T09:27:50.509Z,7.20
2019-04-29T09:30:20.442Z,6.75
2019-04-29T09:32:49.552Z,6.80
2019-04-29T09:35:18.719Z,6.40
2019-04-29T09:37:47.890Z,6.42
2019-04-29T09:40:19.133Z,5.65
2019-04-29T09:43:15.202Z,6.00
2019-04-29T09:45:49.605Z,6.20
2019-04-29T09:48:18.728Z,6.60
2019-04-29T09:50:47.869Z,6.12
2019-04-29T09:53:17.053Z,6.12
2019-04-29T09:55:46.263Z,5.75
2019-04-29T09:58:15.386Z,5.58
2019-04-29T10:01:21.843Z,5.95
2019-04-29T10:04:06.283Z,5.40
2019-04-29T10:06:37.138Z,5.33
2019-04-29T10:09:09.451Z,5.65
2019-04-29T10:11:39.095Z,5.10
2019-04-29T10:14:08.322Z,4.72
2019-04-29T10:16:45.311Z,4.20
2019-04-29T10:19:32.195Z,5.37
2019-04-29T10:22:01.349Z,4.33
2019-04-29T10:24:30.512Z,4.15
2019-04-29T10:26:59.655Z,3.75
2019-04-29T10:29:30.369Z,4.03
2019-04-29T10:32:02.455Z,3.08
2019-04-29T10:34:31.526Z,4.42
2019-04-29T10:37:01.380Z,3.35
2019-04-29T10:39:55.174Z,3.52
2019-04-29T10:42:33.040Z,2.83
2019-04-29T10:45:24.240Z,4.12
2019-04-29T10:47:59.541Z,3.90
2019-04-29T10:50:36.835Z,4.25
2019-04-29T10:53:11.067Z,4.75
2019-04-29T10:55:39.454Z,4.30
2019-04-29T10:58:08.575Z,4.60
2019-04-29T11:01:20.630Z,5.05
2019-04-29T11:03:49.832Z,4.53
2019-04-29T11:06:19.428Z,4.08
2019-04-29T11:08:56.522Z,4.20
2019-04-29T11:11:27.304Z,3.80
2019-04-29T11:13:57.670Z,3.72
2019-04-29T11:16:45.323Z,4.83
2019-04-29T11:19:00.321Z,5.50
2019-04-29T11:21:31.173Z,5.35
2019-04-29T11:24:08.476Z,5.30
2019-04-29T11:26:48.218Z,5.42
2019-04-29T11:29:17.364Z,5.08
2019-04-29T11:31:49.058Z,5.03
2019-04-29T11:34:53.036Z,5.10
2019-04-29T11:37:20.083Z,5.15
2019-04-29T11:39:50.300Z,5.20
2019-04-29T11:42:20.412Z,7.33
2019-04-29T11:44:49.545Z,6.85
2019-04-29T11:47:20.867Z,6.90
2019-04-29T11:49:59.669Z,7.60
2019-04-29T11:52:29.312Z,9.23
2019-04-29T11:54:58.666Z,8.10
2019-04-29T11:57:43.016Z,7.45
2019-04-29T12:00:23.670Z,8.93
2019-04-29T12:02:55.676Z,8.85
2019-04-29T12:05:46.246Z,8.95
2019-04-29T12:08:16.932Z,8.15
2019-04-29T12:10:58.297Z,9.45
2019-04-29T12:13:28.165Z,8.65
2019-04-29T12:16:19.721Z,8.90
2019-04-29T12:18:52.913Z,8.68
2019-04-29T12:21:30.065Z,9.45
2019-04-29T12:24:00.675Z,10.30
2019-04-29T12:26:29.959Z,8.90
2019-04-29T12:28:59.099Z,9.10
2019-04-29T12:31:49.326Z,8.68
2019-04-29T12:34:26.852Z,9.00
2019-04-29T12:36:56.957Z,9.95
2019-04-29T12:39:54.370Z,9.00
2019-04-29T12:42:41.559Z,9.08
2019-04-29T12:45:23.233Z,10.65
2019-04-29T12:47:52.369Z,9.43
2019-04-29T12:50:22.999Z,9.38
2019-04-29T12:52:52.353Z,11.15
2019-04-29T12:55:43.661Z,11.18
2019-04-29T12:57:58.167Z,9.63
2019-04-29T13:00:30.661Z,11.80
2019-04-29T13:03:06.527Z,10.38
2019-04-29T13:06:09.482Z,10.08
2019-04-29T13:08:49.812Z,9.40
2019-04-29T13:11:20.953Z,10.70
2019-04-29T13:13:51.399Z,8.45
2019-04-29T13:16:36.485Z,10.98
2019-04-29T13:19:20.591Z,11.75
2019-04-29T13:21:52.419Z,10.38
2019-04-29T13:24:24.860Z,10.90
2019-04-29T13:26:52.623Z,10.82
2019-04-29T13:29:27.199Z,10.43
2019-04-29T13:31:52.899Z,10.65
2019-04-29T13:34:30.942Z,11.60
2019-04-29T13:37:07.237Z,11.10
2019-04-29T13:39:39.041Z,12.13
2019-04-29T13:42:02.873Z,10.65
2019-04-29T13:44:31.595Z,11.15
2019-04-29T13:47:28.366Z,13.13
2019-04-29T13:50:17.937Z,12.45
2019-04-29T13:52:39.659Z,13.28
2019-04-29T13:55:17.306Z,13.28
2019-04-29T13:57:39.917Z,12.18
2019-04-29T14:00:31.577Z,13.35
2019-04-29T14:03:07.173Z,12.88
2019-04-29T14:05:38.061Z,12.70
2019-04-29T14:08:07.515Z,12.65
2019-04-29T14:10:36.647Z,12.58
2019-04-29T14:13:15.143Z,12.45
2019-04-29T14:15:40.319Z,13.62
2019-04-29T14:18:11.625Z,13.22
2019-04-29T14:20:38.366Z,13.10
2019-04-29T14:23:07.503Z,15.58
2019-04-29T14:25:36.658Z,14.68
2019-04-29T14:28:05.967Z,14.43
2019-04-29T14:30:39.083Z,15.05
2019-04-29T14:33:06.041Z,15.30
2019-04-29T14:35:48.328Z,17.82
2019-04-29T14:38:17.635Z,15.85
2019-04-29T14:40:46.809Z,17.80
2019-04-29T14:43:31.934Z,16.15
2019-04-29T14:46:16.306Z,18.85
2019-04-29T14:48:59.559Z,20.25
2019-04-29T14:54:01.304Z,18.92
2019-04-29T14:56:30.780Z,19.48
2019-04-29T14:59:06.928Z,18.90
2019-04-29T15:01:38.835Z,20.52
2019-04-29T15:04:18.006Z,21.50
2019-04-29T15:06:40.913Z,19.07
2019-04-29T15:09:16.872Z,19.17
2019-04-29T15:11:49.635Z,16.65
2019-04-29T15:14:36.193Z,22.62
2019-04-29T15:17:19.712Z,18.37
2019-04-29T15:20:13.896Z,19.85
2019-04-29T15:22:43.139Z,19.52
2019-04-29T15:25:12.590Z,22.67
2019-04-29T15:27:41.756Z,25.95
2019-04-29T15:30:11.905Z,27.75
2019-04-29T15:32:41.042Z,17.23
2019-04-29T15:35:10.212Z,19.30
2019-04-29T15:37:39.338Z,17.52
2019-04-29T15:40:09.474Z,24.15
2019-04-29T15:42:43.197Z,18.70
2019-04-29T15:45:09.966Z,14.47
2019-04-29T15:47:41.660Z,18.23
2019-04-29T15:50:18.760Z,17.50
2019-04-29T15:52:41.034Z,18.10
2019-04-29T15:55:10.262Z,17.60
2019-04-29T15:57:39.428Z,17.32
2019-04-29T16:00:21.284Z,19.05
2019-04-29T16:02:43.073Z,17.85
2019-04-29T16:05:54.212Z,16.10
2019-04-29T16:08:29.500Z,16.87
2019-04-29T16:11:19.014Z,15.10
2019-04-29T16:14:07.794Z,17.82
2019-04-29T16:16:19.007Z,18.60
2019-04-29T16:18:48.174Z,16.85
2019-04-29T16:21:17.347Z,16.87
2019-04-29T16:23:46.501Z,17.60
2019-04-29T16:26:15.678Z,18.45
2019-04-29T16:28:44.928Z,17.70
2019-04-29T16:31:14.491Z,15.93
2019-04-29T16:33:47.305Z,18.80
2019-04-29T16:36:14.647Z,18.07
2019-04-29T16:38:46.277Z,18.15
2019-04-29T16:41:33.647Z,17.55
2019-04-29T16:44:03.270Z,20.35
2019-04-29T16:46:37.503Z,18.65
2019-04-29T16:49:03.759Z,18.55
2019-04-29T16:51:32.924Z,19.10
2019-04-29T16:54:02.099Z,17.25
2019-04-29T16:56:31.261Z,19.07
2019-04-29T16:59:08.882Z,20.90
2019-04-29T17:01:31.414Z,18.17
2019-04-29T17:04:05.094Z,19.37
2019-04-29T17:06:35.949Z,18.87
2019-04-29T17:09:12.244Z,19.37
2019-04-29T17:11:41.560Z,17.70
2019-04-29T17:14:12.628Z,16.95
2019-04-29T17:16:41.665Z,19.50
2019-04-29T17:19:10.945Z,18.57
2019-04-29T17:21:40.099Z,20.70
2019-04-29T17:24:09.277Z,18.12
2019-04-29T17:26:48.694Z,18.70
2019-04-29T17:29:49.300Z,19.55
2019-04-29T17:32:44.522Z,19.73
2019-04-29T17:35:11.715Z,17.80
2019-04-29T17:37:41.097Z,18.77
2019-04-29T17:40:12.371Z,14.80
2019-04-29T17:42:43.157Z,18.80
2019-04-29T17:45:27.037Z,14.33
2019-04-29T17:47:55.914Z,15.25
2019-04-29T17:50:30.966Z,13.80
2019-04-29T17:53:00.420Z,18.32
2019-04-29T17:55:38.760Z,19.62
2019-04-29T17:58:17.117Z,18.60
2019-04-29T18:01:06.538Z,11.90
2019-04-29T18:03:57.736Z,17.52
2019-04-29T18:06:32.951Z,17.42
2019-04-29T18:09:30.310Z,19.23
2019-04-29T18:12:04.949Z,19.12
2019-04-29T18:17:05.307Z,16.93
2019-04-29T18:19:42.389Z,14.03
2019-04-29T18:22:29.341Z,19.35
2019-04-29T18:25:16.091Z,18.48
2019-04-29T18:27:49.152Z,15.98
2019-04-29T18:30:21.002Z,19.15
2019-04-29T18:32:48.260Z,14.50
2019-04-29T18:35:17.636Z,12.53
2019-04-29T18:37:46.889Z,15.45
2019-04-29T18:40:16.261Z,21.30
2019-04-29T18:42:48.390Z,17.85
2019-04-29T18:45:16.395Z,17.75
2019-04-29T18:47:45.578Z,19.40
2019-04-29T18:50:15.898Z,20.15
2019-04-29T18:52:45.887Z,17.32
2019-04-29T18:55:17.231Z,19.80
2019-04-29T18:57:46.464Z,22.37
2019-04-29T19:00:19.932Z,17.90
2019-04-29T19:02:52.484Z,21.73
2019-04-29T19:05:26.393Z,21.35
2019-04-29T19:08:00.079Z,21.15
2019-04-29T19:10:32.870Z,20.27
2019-04-29T19:12:59.990Z,24.52
2019-04-29T19:15:26.385Z,27.35
2019-04-29T19:18:01.281Z,29.55
2019-04-29T19:20:26.438Z,18.60
2019-04-29T19:23:05.412Z,21.75
2019-04-29T19:25:26.550Z,17.02
2019-04-29T19:27:55.711Z,18.85
2019-04-29T19:30:29.028Z,20.50
2019-04-29T19:33:00.491Z,21.50
2019-04-29T19:35:29.403Z,21.33
2019-04-29T19:37:57.508Z,19.17
2019-04-29T19:40:30.663Z,27.30
2019-04-29T19:42:57.578Z,22.35
2019-04-29T19:45:26.901Z,23.50
2019-04-29T19:47:56.028Z,23.18
2019-04-29T19:50:25.719Z,21.82
2019-04-29T19:52:55.536Z,23.77
2019-04-29T19:55:25.240Z,23.70
2019-04-29T19:57:56.551Z,21.35
2019-04-29T20:00:29.428Z,22.17
2019-04-29T20:02:58.067Z,23.00
2019-04-29T20:05:42.342Z,26.07
2019-04-29T20:08:19.349Z,22.63
2019-04-29T20:10:48.138Z,26.10
2019-04-29T20:13:14.020Z,21.33
2019-04-29T20:15:53.926Z,18.17
2019-04-29T20:18:56.157Z,27.30
2019-04-29T20:21:28.811Z,22.15
2019-04-29T20:23:47.513Z,25.00
2019-04-29T20:26:23.766Z,24.60
2019-04-29T20:28:51.144Z,26.05
2019-04-29T20:31:22.405Z,25.90
2019-04-29T20:33:50.773Z,24.07
2019-04-29T20:36:32.933Z,18.77
2019-04-29T20:38:51.051Z,25.68
2019-04-29T20:41:36.739Z,22.90
2019-04-29T20:43:51.459Z,23.62
2019-04-29T20:46:20.830Z,20.60
2019-04-29T20:48:54.598Z,28.92
2019-04-29T20:51:23.177Z,27.48
2019-04-29T20:53:57.753Z,25.82
2019-04-29T20:56:29.863Z,30.68
2019-04-29T20:59:02.094Z,28.90
2019-04-29T21:01:38.643Z,28.23
2019-04-29T21:04:05.823Z,31.23
2019-04-29T21:06:39.236Z,29.55
2019-04-29T21:09:07.761Z,26.25
2019-04-29T21:12:05.096Z,27.22
2019-04-29T21:14:41.786Z,31.62
2019-04-29T21:17:11.358Z,25.05
2019-04-29T21:19:40.645Z,30.32
2019-04-29T21:22:20.399Z,28.20
2019-04-29T21:24:45.307Z,28.55
2019-04-29T21:27:17.701Z,30.02
2019-04-29T21:29:45.783Z,27.58
2019-04-29T21:32:15.700Z,34.30
2019-04-29T21:34:55.629Z,32.50
2019-04-29T21:40:24.772Z,28.27
2019-04-29T21:42:58.469Z,34.67
2019-04-29T21:45:27.629Z,32.70
2019-04-29T21:47:56.791Z,35.28
2019-04-29T21:50:29.373Z,36.15
2019-04-29T21:53:01.723Z,34.40
2019-04-29T21:55:29.338Z,34.18
2019-04-29T21:58:00.369Z,35.63
2019-04-29T22:00:29.503Z,37.23
2019-04-29T22:02:59.060Z,30.40
2019-04-29T22:05:28.225Z,37.55
2019-04-29T22:07:57.521Z,38.88
2019-04-29T22:10:28.999Z,33.48
2019-04-29T22:13:01.781Z,34.70
2019-04-29T22:15:32.705Z,30.10
2019-04-29T22:18:01.636Z,30.75
2019-04-29T22:20:30.293Z,25.43
2019-04-29T22:22:59.460Z,37.20
2019-04-29T22:25:28.701Z,36.45
2019-04-29T22:27:57.867Z,32.17
2019-04-29T22:30:27.114Z,27.50
2019-04-29T22:32:58.637Z,34.60
2019-04-29T22:35:27.711Z,40.17
2019-04-29T22:38:00.358Z,34.05
2019-04-29T22:40:29.493Z,27.45
2019-04-29T22:43:15.001Z,31.23
2019-04-29T22:45:44.623Z,27.93
2019-04-29T22:48:17.396Z,34.80
2019-04-29T22:50:45.503Z,27.60
2019-04-29T22:53:15.589Z,32.42
2019-04-29T22:55:45.217Z,30.70
2019-04-29T22:58:15.108Z,36.13
2019-04-29T23:00:44.507Z,27.75
2019-04-29T23:03:13.580Z,27.37
2019-04-29T23:05:42.713Z,27.35
2019-04-29T23:08:11.848Z,28.02
2019-04-29T23:10:40.986Z,24.37
2019-04-29T23:13:10.103Z,25.45
2019-04-29T23:15:39.267Z,25.68
2019-04-29T23:18:09.279Z,34.08
2019-04-29T23:21:03.988Z,34.92
2019-04-29T23:23:41.933Z,34.73
2019-04-29T23:26:11.135Z,38.15
2019-04-29T23:28:40.270Z,29.67
2019-04-29T23:31:09.394Z,29.15
2019-04-29T23:33:38.573Z,30.75
2019-04-29T23:36:09.688Z,37.20
2019-04-29T23:38:42.640Z,37.95
2019-04-29T23:41:09.427Z,38.08
2019-04-29T23:43:38.574Z,38.50
2019-04-29T23:46:07.716Z,37.17
2019-04-29T23:48:39.557Z,36.38
2019-04-29T23:51:07.710Z,36.50
2019-04-29T23:53:37.012Z,38.08
2019-04-29T23:56:09.660Z,33.58
2019-04-29T23:58:47.025Z,38.48
